Andes — 5BFM3 — position and weather

sailwx.info

Track history (hours):
 
Tides and Currents Weather Stations Pressure Air Temp Water Temp Dewpoint Dewpoint Depression Visibility Wind Speed Wind Dir Waves Ship Positions

Andes

Last reported at 2015-Jan-25 00:33 UTC. Time now 2015-Feb-01 14:47 UTC.
Position N 36°05' W 005°15'.

Length 182 m; draft 8.5 m.

Type: Ship. MMSI: 209394000.

Date/timePositionNaut miles runAvg speedWind from/ knotsBaromVisibWave heightAir tempDewpointWater temp
2015-Jan-25 00:33N 36°05' W 005°15'6 6.0
2015-Jan-24 23:32N 36°08' W 005°22'0 0.0
2015-Jan-24 22:32N 36°08' W 005°22'0 0.1
2015-Jan-24 21:32N 36°08' W 005°22'0 0.1
2015-Jan-24 20:23N 36°08' W 005°22'2 2.8
2015-Jan-24 19:33N 36°06' W 005°22'2 2.2
2015-Jan-24 18:34N 36°05' W 005°24'1 0.9
2015-Jan-24 17:32N 36°06' W 005°24'0 0.0
2015-Jan-24 16:32N 36°06' W 005°24'0 0.0
2015-Jan-24 15:29N 36°06' W 005°24'0 0.0
2015-Jan-24 14:29N 36°06' W 005°24'0 0.0
2015-Jan-24 13:32N 36°06' W 005°24'0 0.0
2015-Jan-24 12:32N 36°06' W 005°24'0 0.0
2015-Jan-24 11:29N 36°06' W 005°24'0 0.2
2015-Jan-24 10:32N 36°05' W 005°24'0 0.0
2015-Jan-24 09:32N 36°05' W 005°24'0 0.0
2015-Jan-24 08:08N 36°05' W 005°24'0 0.0
2015-Jan-24 06:26N 36°05' W 005°24'0 0.2
2015-Jan-24 05:32N 36°06' W 005°24'0 0.0
2015-Jan-24 04:32N 36°06' W 005°24'2 1.8
2015-Jan-24 03:33N 36°05' W 005°22'9 9.3
2015-Jan-24 02:33N 36°07' W 005°10'1 0.6
2015-Jan-24 01:33N 36°07' W 005°10'0 0.4
2015-Jan-24 00:30N 36°07' W 005°10'0 0.3
2015-Jan-23 23:22N 36°07' W 005°11'0 0.6
2015-Jan-23 22:31N 36°07' W 005°11'1 0.6
2015-Jan-23 21:33N 36°06' W 005°12'4 4.0
2015-Jan-23 20:34N 36°03' W 005°15'3 3.5
2015-Jan-23 19:33N 36°05' W 005°19'1 1.3
2015-Jan-23 18:28N 36°04' W 005°19'7 8.0
2015-Jan-23 17:33N 35°58' W 005°26'  
Track history (hours):
 
Tides and Currents Weather Stations Pressure Air Temp Water Temp Dewpoint Dewpoint Depression Visibility Wind Speed Wind Dir Waves Ship Positions

Andes

Last reported at 2015-Jan-25 00:33 UTC. Time now 2015-Feb-01 14:47 UTC.
Position N 36°05' W 005°15'.

Length 182 m; draft 8.5 m.

Type: Ship. MMSI: 209394000.

Date/timePositionNaut miles runAvg speedWind from/ knotsBaromVisibWave heightAir tempDewpointWater temp
2015-Jan-25 00:33N 36°05' W 005°15'6 6.0
2015-Jan-24 23:32N 36°08' W 005°22'0 0.0
2015-Jan-24 22:32N 36°08' W 005°22'0 0.1
2015-Jan-24 21:32N 36°08' W 005°22'0 0.1
2015-Jan-24 20:23N 36°08' W 005°22'2 2.8
2015-Jan-24 19:33N 36°06' W 005°22'2 2.2
2015-Jan-24 18:34N 36°05' W 005°24'1 0.9
2015-Jan-24 17:32N 36°06' W 005°24'0 0.0
2015-Jan-24 16:32N 36°06' W 005°24'0 0.0
2015-Jan-24 15:29N 36°06' W 005°24'0 0.0
2015-Jan-24 14:29N 36°06' W 005°24'0 0.0
2015-Jan-24 13:32N 36°06' W 005°24'0 0.0
2015-Jan-24 12:32N 36°06' W 005°24'0 0.0
2015-Jan-24 11:29N 36°06' W 005°24'0 0.2
2015-Jan-24 10:32N 36°05' W 005°24'0 0.0
2015-Jan-24 09:32N 36°05' W 005°24'0 0.0
2015-Jan-24 08:08N 36°05' W 005°24'0 0.0
2015-Jan-24 06:26N 36°05' W 005°24'0 0.2
2015-Jan-24 05:32N 36°06' W 005°24'0 0.0
2015-Jan-24 04:32N 36°06' W 005°24'2 1.8
2015-Jan-24 03:33N 36°05' W 005°22'9 9.3
2015-Jan-24 02:33N 36°07' W 005°10'1 0.6
2015-Jan-24 01:33N 36°07' W 005°10'0 0.4
2015-Jan-24 00:30N 36°07' W 005°10'0 0.3
2015-Jan-23 23:22N 36°07' W 005°11'0 0.6
2015-Jan-23 22:31N 36°07' W 005°11'1 0.6
2015-Jan-23 21:33N 36°06' W 005°12'4 4.0
2015-Jan-23 20:34N 36°03' W 005°15'3 3.5
2015-Jan-23 19:33N 36°05' W 005°19'1 1.3
2015-Jan-23 18:28N 36°04' W 005°19'7 8.0
2015-Jan-23 17:33N 35°58' W 005°26'  

Dump ship's entire track history